createdAt,value
2018-10-11T00:00:36.710Z,23.77
2018-10-11T00:03:05.605Z,23.43
2018-10-11T00:05:34.271Z,23.80
2018-10-11T00:08:03.231Z,23.47
2018-10-11T00:10:31.914Z,22.23
2018-10-11T00:13:00.604Z,25.03
2018-10-11T00:15:29.310Z,25.30
2018-10-11T00:17:58.020Z,24.30
2018-10-11T00:20:26.767Z,24.17
2018-10-11T00:22:55.440Z,24.10
2018-10-11T00:25:24.131Z,26.10
2018-10-11T00:27:52.810Z,24.53
2018-10-11T00:30:21.510Z,22.40
2018-10-11T00:32:50.186Z,24.40
2018-10-11T00:35:18.877Z,28.53
2018-10-11T00:37:47.534Z,24.83
2018-10-11T00:40:16.219Z,23.67
2018-10-11T00:42:44.915Z,22.17
2018-10-11T00:45:13.662Z,23.63
2018-10-11T00:47:42.388Z,22.30
2018-10-11T00:50:11.057Z,23.17
2018-10-11T00:52:39.761Z,23.20
2018-10-11T00:55:08.468Z,24.37
2018-10-11T00:57:37.179Z,23.73
2018-10-11T01:00:06.044Z,23.13
2018-10-11T01:02:34.738Z,25.17
2018-10-11T01:05:03.508Z,23.67
2018-10-11T01:07:32.202Z,26.10
2018-10-11T01:10:01.672Z,23.83
2018-10-11T01:12:30.251Z,24.40
2018-10-11T01:14:59.007Z,25.33
2018-10-11T01:17:34.205Z,23.23
2018-10-11T01:20:02.959Z,24.10
2018-10-11T01:22:31.678Z,24.37
2018-10-11T01:25:00.356Z,22.30
2018-10-11T01:27:29.069Z,23.90
2018-10-11T01:29:57.952Z,24.57
2018-10-11T01:32:26.621Z,25.87
2018-10-11T01:34:55.314Z,26.83
2018-10-11T01:37:25.054Z,25.33
2018-10-11T01:39:53.735Z,24.87
2018-10-11T01:42:22.471Z,24.03
2018-10-11T01:44:51.170Z,25.47
2018-10-11T01:47:19.890Z,24.30
2018-10-11T01:49:48.599Z,24.80
2018-10-11T01:52:17.302Z,24.90
2018-10-11T01:54:45.975Z,23.60
2018-10-11T01:57:14.681Z,21.53
2018-10-11T01:59:43.334Z,24.80
2018-10-11T02:02:12.042Z,23.27
2018-10-11T02:04:40.815Z,23.43
2018-10-11T02:07:09.527Z,23.73
2018-10-11T02:09:38.256Z,22.97
2018-10-11T02:12:07.163Z,22.80
2018-10-11T02:14:35.827Z,22.27
2018-10-11T02:17:04.545Z,23.13
2018-10-11T02:19:33.304Z,23.17
2018-10-11T02:22:02.838Z,23.73
2018-10-11T02:24:31.578Z,21.80
2018-10-11T02:27:00.270Z,22.63
2018-10-11T02:29:28.951Z,23.50
2018-10-11T02:31:57.688Z,24.53
2018-10-11T02:34:26.355Z,22.47
2018-10-11T02:36:55.034Z,22.60
2018-10-11T02:39:23.686Z,22.03
2018-10-11T02:41:52.367Z,21.60
2018-10-11T02:44:21.025Z,23.03
2018-10-11T02:46:49.754Z,22.17
2018-10-11T02:49:18.469Z,22.97
2018-10-11T02:51:47.154Z,21.70
2018-10-11T02:54:15.840Z,21.47
2018-10-11T02:56:44.638Z,22.00
2018-10-11T02:59:33.729Z,21.20
2018-10-11T03:02:07.229Z,23.13
2018-10-11T03:04:36.313Z,23.03
2018-10-11T03:07:06.966Z,21.27
2018-10-11T03:09:35.744Z,22.97
2018-10-11T03:12:04.494Z,22.70
2018-10-11T03:14:33.180Z,22.17
2018-10-11T03:17:01.854Z,21.97
2018-10-11T03:19:30.554Z,22.13
2018-10-11T03:21:59.330Z,22.93
2018-10-11T03:24:28.017Z,22.93
2018-10-11T03:26:58.743Z,21.70
2018-10-11T03:29:27.807Z,23.23
2018-10-11T03:31:56.533Z,22.37
2018-10-11T03:34:25.854Z,22.40
2018-10-11T03:36:54.613Z,20.97
2018-10-11T03:39:23.290Z,23.40
2018-10-11T03:41:51.967Z,21.83
2018-10-11T03:44:20.641Z,21.10
2018-10-11T03:46:49.346Z,22.03
2018-10-11T03:49:18.038Z,22.90
2018-10-11T03:51:46.744Z,22.87
2018-10-11T03:54:15.403Z,22.03
2018-10-11T03:56:44.087Z,22.17
2018-10-11T03:59:13.160Z,23.43
2018-10-11T04:01:41.880Z,23.90
2018-10-11T04:04:10.578Z,22.57
2018-10-11T04:06:39.250Z,23.30
2018-10-11T04:09:08.012Z,22.10
2018-10-11T04:11:36.718Z,22.73
2018-10-11T04:14:05.386Z,22.03
2018-10-11T04:16:34.077Z,19.77
2018-10-11T04:19:03.028Z,20.37
2018-10-11T04:21:31.738Z,23.43
2018-10-11T04:24:00.409Z,20.87
2018-10-11T04:26:29.103Z,23.53
2018-10-11T04:28:57.777Z,21.43
2018-10-11T04:31:26.519Z,22.70
2018-10-11T04:33:55.245Z,23.37
2018-10-11T04:36:23.950Z,23.00
2018-10-11T04:38:52.646Z,21.03
2018-10-11T04:41:21.326Z,22.27
2018-10-11T04:43:49.985Z,20.30
2018-10-11T04:46:18.726Z,21.03
2018-10-11T04:48:47.427Z,21.33
2018-10-11T04:51:16.138Z,21.23
2018-10-11T04:53:55.266Z,19.87
2018-10-11T04:56:25.039Z,20.57
2018-10-11T04:58:53.693Z,22.20
2018-10-11T05:01:22.384Z,21.70
2018-10-11T05:03:51.062Z,21.53
2018-10-11T05:06:19.779Z,21.87
2018-10-11T05:08:48.484Z,23.83
2018-10-11T05:11:17.350Z,24.53
2018-10-11T05:13:48.563Z,25.90
2018-10-11T05:16:17.686Z,25.67
2018-10-11T05:18:51.862Z,25.70
2018-10-11T05:21:20.568Z,23.90
2018-10-11T05:23:49.283Z,23.73
2018-10-11T05:26:18.172Z,21.63
2018-10-11T05:28:46.743Z,22.77
2018-10-11T05:31:16.641Z,23.53
2018-10-11T05:33:45.309Z,21.53
2018-10-11T05:36:14.798Z,21.50
2018-10-11T05:38:44.026Z,20.83
2018-10-11T05:41:13.114Z,22.90
2018-10-11T05:43:41.933Z,21.73
2018-10-11T05:46:41.592Z,20.87
2018-10-11T05:49:10.402Z,22.90
2018-10-11T05:51:39.188Z,25.53
2018-10-11T05:54:08.567Z,21.33
2018-10-11T05:56:40.442Z,20.10
2018-10-11T05:59:10.950Z,21.10
2018-10-11T06:01:39.718Z,21.43
2018-10-11T06:04:09.723Z,20.27
2018-10-11T06:06:44.884Z,22.90
2018-10-11T06:09:13.681Z,21.30
2018-10-11T06:11:42.469Z,21.77
2018-10-11T06:14:11.686Z,22.47
2018-10-11T06:16:40.528Z,21.23
2018-10-11T06:19:09.295Z,20.77
2018-10-11T06:21:37.984Z,21.60
2018-10-11T06:24:06.774Z,20.03
2018-10-11T06:26:35.447Z,22.87
2018-10-11T06:29:04.262Z,22.07
2018-10-11T06:31:33.021Z,20.40
2018-10-11T06:34:01.816Z,21.40
2018-10-11T06:36:30.829Z,20.33
2018-10-11T06:38:59.921Z,21.90
2018-10-11T06:41:29.016Z,22.60
2018-10-11T06:43:57.969Z,26.00
2018-10-11T06:46:26.730Z,22.93
2018-10-11T06:48:55.547Z,22.93
2018-10-11T06:51:24.336Z,22.57
2018-10-11T06:53:53.202Z,24.63
2018-10-11T06:56:21.904Z,27.17
2018-10-11T06:58:50.614Z,29.53
2018-10-11T07:01:19.291Z,25.23
2018-10-11T07:03:47.974Z,25.77
2018-10-11T07:06:16.718Z,20.27
2018-10-11T07:08:45.413Z,23.60
2018-10-11T07:11:14.387Z,22.50
2018-10-11T07:13:43.258Z,20.97
2018-10-11T07:16:12.046Z,19.97
2018-10-11T07:18:40.723Z,20.00
2018-10-11T07:21:09.427Z,19.37
2018-10-11T07:23:38.182Z,19.13
2018-10-11T07:26:06.902Z,17.70
2018-10-11T07:28:35.659Z,19.77
2018-10-11T07:31:04.336Z,20.47
2018-10-11T07:33:33.030Z,19.30
2018-10-11T07:36:01.745Z,18.73
2018-10-11T07:38:30.403Z,16.33
2018-10-11T07:40:59.136Z,15.90
2018-10-11T07:43:27.825Z,16.57
2018-10-11T07:45:56.553Z,15.50
2018-10-11T07:48:25.262Z,22.57
2018-10-11T07:50:53.987Z,12.83
2018-10-11T07:53:22.670Z,13.27
2018-10-11T07:55:51.381Z,12.33
2018-10-11T07:58:20.043Z,10.43
2018-10-11T08:00:48.704Z,10.77
2018-10-11T08:03:17.422Z,10.73
2018-10-11T08:05:46.072Z,10.53
2018-10-11T08:08:14.824Z,10.07
2018-10-11T08:10:43.530Z,9.90
2018-10-11T08:13:12.193Z,9.83
2018-10-11T08:15:40.870Z,9.83
2018-10-11T08:18:09.633Z,8.73
2018-10-11T08:20:38.402Z,9.83
2018-10-11T08:23:07.044Z,8.97
2018-10-11T08:25:36.073Z,8.30
2018-10-11T08:28:04.432Z,9.57
2018-10-11T08:30:33.097Z,9.47
2018-10-11T08:33:01.862Z,8.43
2018-10-11T08:35:30.507Z,9.40
2018-10-11T08:37:59.366Z,8.07
2018-10-11T08:40:27.885Z,8.30
2018-10-11T08:42:56.617Z,9.00
2018-10-11T08:45:25.271Z,7.90
2018-10-11T08:47:53.950Z,8.80
2018-10-11T08:50:22.664Z,10.27
2018-10-11T08:52:51.369Z,8.00
2018-10-11T08:55:20.081Z,9.43
2018-10-11T08:57:49.274Z,7.93
2018-10-11T09:00:17.586Z,9.00
2018-10-11T09:02:46.299Z,9.23
2018-10-11T09:05:15.000Z,7.47
2018-10-11T09:07:43.707Z,9.33
2018-10-11T09:10:12.359Z,8.53
2018-10-11T09:12:41.042Z,8.50
2018-10-11T09:15:09.875Z,8.83
2018-10-11T09:17:38.584Z,8.87
2018-10-11T09:20:07.371Z,8.47
2018-10-11T09:22:36.095Z,8.17
2018-10-11T09:25:04.803Z,7.50
2018-10-11T09:27:33.485Z,7.50
2018-10-11T09:30:02.223Z,7.13
2018-10-11T09:32:30.919Z,8.07
2018-10-11T09:34:59.582Z,9.83
2018-10-11T09:37:28.404Z,8.13
2018-10-11T09:39:57.067Z,8.73
2018-10-11T09:42:25.775Z,7.90
2018-10-11T09:44:54.506Z,7.33
2018-10-11T09:47:23.163Z,8.17
2018-10-11T09:49:54.812Z,7.13
2018-10-11T09:52:23.506Z,7.80
2018-10-11T09:54:52.250Z,8.13
2018-10-11T09:57:30.457Z,7.53
2018-10-11T10:00:00.031Z,8.20
2018-10-11T10:02:29.226Z,11.77
2018-10-11T10:05:02.153Z,8.03
2018-10-11T10:07:30.841Z,7.50
2018-10-11T10:09:59.563Z,7.60
2018-10-11T10:12:28.198Z,7.50
2018-10-11T10:14:56.887Z,7.73
2018-10-11T10:17:25.623Z,8.00
2018-10-11T10:19:54.276Z,7.73
2018-10-11T10:22:22.937Z,9.20
2018-10-11T10:24:51.653Z,7.27
2018-10-11T10:27:20.672Z,6.83
2018-10-11T10:29:49.305Z,7.10
2018-10-11T10:32:17.969Z,6.30
2018-10-11T10:34:46.639Z,7.27
2018-10-11T10:37:15.360Z,7.43
2018-10-11T10:39:44.253Z,6.60
2018-10-11T10:42:12.879Z,7.33
2018-10-11T10:44:41.726Z,7.50
2018-10-11T10:47:10.506Z,7.83
2018-10-11T10:49:39.282Z,7.80
2018-10-11T10:52:08.032Z,8.73
2018-10-11T10:54:37.026Z,7.20
2018-10-11T10:57:06.377Z,6.87
2018-10-11T10:59:35.090Z,7.50
2018-10-11T11:02:03.787Z,8.07
2018-10-11T11:04:32.464Z,6.97
2018-10-11T11:07:01.472Z,6.83
2018-10-11T11:09:30.127Z,7.20
2018-10-11T11:11:58.798Z,7.40
2018-10-11T11:14:27.488Z,6.93
2018-10-11T11:16:56.149Z,7.67
2018-10-11T11:19:24.821Z,7.10
2018-10-11T11:21:53.534Z,8.20
2018-10-11T11:24:22.178Z,6.80
2018-10-11T11:26:50.926Z,8.20
2018-10-11T11:29:19.668Z,7.33
2018-10-11T11:31:48.314Z,7.03
2018-10-11T11:34:16.994Z,7.27
2018-10-11T11:36:45.666Z,6.90
2018-10-11T11:39:14.441Z,7.23
2018-10-11T11:41:43.082Z,6.87
2018-10-11T11:44:11.767Z,7.30
2018-10-11T11:46:40.425Z,7.30
2018-10-11T11:49:09.124Z,7.80
2018-10-11T11:51:37.791Z,7.73
2018-10-11T11:54:10.746Z,6.10
2018-10-11T11:56:39.410Z,6.03
2018-10-11T11:59:08.115Z,5.67
2018-10-11T12:01:36.781Z,6.13
2018-10-11T12:04:05.517Z,6.63
2018-10-11T12:06:34.174Z,6.37
2018-10-11T12:09:03.214Z,6.63
2018-10-11T12:11:31.870Z,6.63
2018-10-11T12:14:00.579Z,7.40
2018-10-11T12:16:29.296Z,9.90
2018-10-11T12:18:57.938Z,6.57
2018-10-11T12:21:26.599Z,6.40
2018-10-11T12:23:55.304Z,7.17
2018-10-11T12:26:24.060Z,6.60
2018-10-11T12:28:52.801Z,6.97
2018-10-11T12:31:21.503Z,6.50
2018-10-11T12:33:50.706Z,5.73
2018-10-11T12:36:19.501Z,6.00
2018-10-11T12:38:48.200Z,5.40
2018-10-11T12:41:16.805Z,6.03
2018-10-11T12:43:46.231Z,6.40
2018-10-11T12:46:14.224Z,6.00
2018-10-11T12:48:42.887Z,5.43
2018-10-11T12:51:11.570Z,4.83
2018-10-11T12:53:44.330Z,5.60
2018-10-11T12:56:09.005Z,5.83
2018-10-11T12:58:37.655Z,5.40
2018-10-11T13:01:06.481Z,5.40
2018-10-11T13:03:35.082Z,5.67
2018-10-11T13:06:03.766Z,5.90
2018-10-11T13:08:32.467Z,5.57
2018-10-11T13:11:01.583Z,6.17
2018-10-11T13:13:30.224Z,5.90
2018-10-11T13:16:01.398Z,5.47
2018-10-11T13:18:28.173Z,6.17
2018-10-11T13:20:56.831Z,5.53
2018-10-11T13:23:25.530Z,5.40
2018-10-11T13:25:54.169Z,5.90
2018-10-11T13:28:22.838Z,5.40
2018-10-11T13:30:52.012Z,4.80
2018-10-11T13:33:21.153Z,5.50
2018-10-11T13:35:49.807Z,5.20
2018-10-11T13:38:18.514Z,4.83
2018-10-11T13:40:47.338Z,5.63
2018-10-11T13:43:15.905Z,4.80
2018-10-11T13:45:44.611Z,5.80
2018-10-11T13:48:13.260Z,4.97
2018-10-11T13:50:41.931Z,5.60
2018-10-11T13:53:18.365Z,7.27
2018-10-11T13:55:46.939Z,6.00
2018-10-11T13:58:10.943Z,7.00
2018-10-11T14:00:39.639Z,5.57
2018-10-11T14:03:08.609Z,6.07
2018-10-11T14:05:37.382Z,5.73
2018-10-11T14:08:06.084Z,5.30
2018-10-11T14:10:34.830Z,5.13
2018-10-11T14:13:09.225Z,5.20
2018-10-11T14:15:32.209Z,5.50
2018-10-11T14:18:06.215Z,5.40
2018-10-11T14:20:29.734Z,5.30
2018-10-11T14:22:58.387Z,5.03
2018-10-11T14:25:27.084Z,4.90
2018-10-11T14:27:55.729Z,4.97
2018-10-11T14:30:24.409Z,5.07
2018-10-11T14:32:53.539Z,4.90
2018-10-11T14:35:22.206Z,6.03
2018-10-11T14:37:50.872Z,5.87
2018-10-11T14:40:19.606Z,5.67
2018-10-11T14:42:48.506Z,4.67
2018-10-11T14:45:20.394Z,7.30
2018-10-11T14:47:49.071Z,4.70
2018-10-11T14:50:17.751Z,5.60
2018-10-11T14:52:46.412Z,5.10
2018-10-11T14:55:15.119Z,5.23
2018-10-11T14:57:43.834Z,5.73
2018-10-11T15:00:12.540Z,5.77
2018-10-11T15:02:41.277Z,5.53
2018-10-11T15:05:09.911Z,5.70
2018-10-11T15:07:38.618Z,6.07
2018-10-11T15:10:07.300Z,5.00
2018-10-11T15:12:35.951Z,5.63
2018-10-11T15:15:04.999Z,4.50
2018-10-11T15:17:33.655Z,5.17
2018-10-11T15:20:02.300Z,5.10
2018-10-11T15:22:31.002Z,4.80
2018-10-11T15:24:59.650Z,4.80
2018-10-11T15:27:28.306Z,5.30
2018-10-11T15:29:57.043Z,5.97
2018-10-11T15:32:25.658Z,5.20
2018-10-11T15:34:54.527Z,4.90
2018-10-11T15:37:23.283Z,5.97
2018-10-11T15:39:52.029Z,7.30
2018-10-11T15:42:27.448Z,5.17
2018-10-11T15:44:56.167Z,5.73
2018-10-11T15:47:24.826Z,6.60
2018-10-11T15:49:53.507Z,6.17
2018-10-11T15:52:22.236Z,8.23
2018-10-11T15:54:50.895Z,10.17
2018-10-11T15:57:19.587Z,6.43
2018-10-11T15:59:48.259Z,5.83
2018-10-11T16:02:17.465Z,7.17
2018-10-11T16:04:46.554Z,7.37
2018-10-11T16:07:15.623Z,7.97
2018-10-11T16:09:44.792Z,7.67
2018-10-11T16:12:13.895Z,8.33
2018-10-11T16:14:42.583Z,13.23
2018-10-11T16:17:11.279Z,12.80
2018-10-11T16:19:39.952Z,24.23
2018-10-11T16:22:08.657Z,12.50
2018-10-11T16:24:37.397Z,11.40
2018-10-11T16:27:06.070Z,6.93
2018-10-11T16:29:34.722Z,10.47
2018-10-11T16:32:03.759Z,10.37
2018-10-11T16:34:32.546Z,9.10
2018-10-11T16:37:01.541Z,9.77
2018-10-11T16:39:30.233Z,13.53
2018-10-11T16:41:58.894Z,11.53
2018-10-11T16:44:27.758Z,16.67
2018-10-11T16:46:56.446Z,15.33
2018-10-11T16:49:25.090Z,14.07
2018-10-11T16:51:53.789Z,19.90
2018-10-11T16:54:22.470Z,22.97
2018-10-11T16:56:51.148Z,28.77
2018-10-11T16:59:19.842Z,14.20
2018-10-11T17:01:48.505Z,13.50
2018-10-11T17:04:17.402Z,9.07
2018-10-11T17:06:45.946Z,8.17
2018-10-11T17:09:14.790Z,8.13
2018-10-11T17:11:43.503Z,8.77
2018-10-11T17:14:12.291Z,10.43
2018-10-11T17:16:41.088Z,14.63
2018-10-11T17:19:09.798Z,14.23
2018-10-11T17:21:38.550Z,14.33
2018-10-11T17:24:07.627Z,13.77
2018-10-11T17:26:36.751Z,13.87
2018-10-11T17:29:05.453Z,11.83
2018-10-11T17:31:34.146Z,13.33
2018-10-11T17:34:03.403Z,11.47
2018-10-11T17:36:32.229Z,9.20
2018-10-11T17:39:01.772Z,10.10
2018-10-11T17:41:30.512Z,9.57
2018-10-11T17:43:59.264Z,9.03
2018-10-11T17:46:28.041Z,8.57
2018-10-11T17:48:56.719Z,7.40
2018-10-11T17:51:25.698Z,8.93
2018-10-11T17:53:54.465Z,7.73
2018-10-11T17:56:23.168Z,8.60
2018-10-11T17:58:51.938Z,8.93
2018-10-11T18:01:20.590Z,10.00
2018-10-11T18:03:49.274Z,19.20
2018-10-11T18:06:22.275Z,11.23
2018-10-11T18:08:51.062Z,12.57
2018-10-11T18:11:19.893Z,13.40
2018-10-11T18:13:48.595Z,14.67
2018-10-11T18:16:17.347Z,12.77
2018-10-11T18:18:46.068Z,13.47
2018-10-11T18:21:14.739Z,14.90
2018-10-11T18:23:43.474Z,15.37
2018-10-11T18:26:12.243Z,16.93
2018-10-11T18:28:40.938Z,12.13
2018-10-11T18:31:09.674Z,14.70
2018-10-11T18:33:38.354Z,13.00
2018-10-11T18:36:07.049Z,12.93
2018-10-11T18:38:35.790Z,13.10
2018-10-11T18:41:04.453Z,15.30
2018-10-11T18:43:33.177Z,15.80
2018-10-11T18:46:01.846Z,15.90
2018-10-11T18:48:30.551Z,14.63
2018-10-11T18:50:59.245Z,15.63
2018-10-11T18:53:27.921Z,14.00
2018-10-11T18:55:56.588Z,17.33
2018-10-11T18:58:25.388Z,14.80
2018-10-11T19:00:54.089Z,15.20
2018-10-11T19:03:22.794Z,13.30
2018-10-11T19:05:51.479Z,12.77
2018-10-11T19:08:20.154Z,12.63
2018-10-11T19:10:48.847Z,14.63
2018-10-11T19:13:17.595Z,13.70
2018-10-11T19:15:46.258Z,14.53
2018-10-11T19:18:14.978Z,15.07
2018-10-11T19:20:43.678Z,15.07
2018-10-11T19:23:12.361Z,15.50
2018-10-11T19:25:41.007Z,17.07
2018-10-11T19:28:09.732Z,16.33
2018-10-11T19:30:38.394Z,14.17
2018-10-11T19:33:07.084Z,13.90
2018-10-11T19:35:35.730Z,14.80
2018-10-11T19:38:04.683Z,14.50
2018-10-11T19:40:33.325Z,13.00
2018-10-11T19:43:02.904Z,14.13
2018-10-11T19:45:31.582Z,14.33
2018-10-11T19:48:00.249Z,14.67
2018-10-11T19:50:28.909Z,15.27
2018-10-11T19:52:57.654Z,14.80
2018-10-11T19:55:26.335Z,15.73
2018-10-11T19:57:54.997Z,14.57
2018-10-11T20:00:23.674Z,17.67
2018-10-11T20:02:52.414Z,16.30
2018-10-11T20:05:21.093Z,15.40
2018-10-11T20:07:49.855Z,17.93
2018-10-11T20:10:18.526Z,16.67
2018-10-11T20:12:47.178Z,16.57
2018-10-11T20:15:15.903Z,16.07
2018-10-11T20:17:44.584Z,16.57
2018-10-11T20:20:13.387Z,17.97
2018-10-11T20:22:42.122Z,16.27
2018-10-11T20:25:10.794Z,18.53
2018-10-11T20:27:39.511Z,17.93
2018-10-11T20:30:08.280Z,17.67
2018-10-11T20:32:36.947Z,17.80
2018-10-11T20:35:05.689Z,18.83
2018-10-11T20:37:34.360Z,17.20
2018-10-11T20:40:03.217Z,15.40
2018-10-11T20:42:31.882Z,15.77
2018-10-11T20:45:00.526Z,17.83
2018-10-11T20:47:29.226Z,19.60
2018-10-11T20:49:57.987Z,20.30
2018-10-11T20:52:26.667Z,18.60
2018-10-11T20:54:55.297Z,18.87
2018-10-11T20:57:24.074Z,17.73
2018-10-11T20:59:52.694Z,19.00
2018-10-11T21:02:21.366Z,18.93
2018-10-11T21:04:50.019Z,18.27
2018-10-11T21:07:18.713Z,16.87
2018-10-11T21:09:47.350Z,15.90
2018-10-11T21:12:16.083Z,16.83
2018-10-11T21:14:44.746Z,16.50
2018-10-11T21:17:13.491Z,15.77
2018-10-11T21:19:42.185Z,15.43
2018-10-11T21:22:10.853Z,17.10
2018-10-11T21:24:39.504Z,17.33
2018-10-11T21:27:08.282Z,16.77
2018-10-11T21:29:36.983Z,16.07
2018-10-11T21:32:05.661Z,16.57
2018-10-11T21:34:34.303Z,16.67
2018-10-11T21:37:03.339Z,16.00
2018-10-11T21:39:32.014Z,15.97
2018-10-11T21:42:00.702Z,16.77
2018-10-11T21:44:29.333Z,15.73
2018-10-11T21:46:58.030Z,15.83
2018-10-11T21:49:26.715Z,15.53
2018-10-11T21:51:55.411Z,15.17
2018-10-11T21:54:24.071Z,15.77
2018-10-11T21:56:52.762Z,18.97
2018-10-11T21:59:21.391Z,14.57
2018-10-11T22:01:50.094Z,14.77
2018-10-11T22:04:18.739Z,14.60
2018-10-11T22:06:47.475Z,14.67
2018-10-11T22:09:16.169Z,14.13
2018-10-11T22:11:44.921Z,14.53
2018-10-11T22:14:13.605Z,14.57
2018-10-11T22:16:42.263Z,14.43
2018-10-11T22:19:10.925Z,14.60
2018-10-11T22:21:39.620Z,14.10
2018-10-11T22:24:08.546Z,15.00
2018-10-11T22:26:37.221Z,16.47
2018-10-11T22:29:05.877Z,15.00
2018-10-11T22:31:34.604Z,14.47
2018-10-11T22:34:03.324Z,15.20
2018-10-11T22:36:32.053Z,15.23
2018-10-11T22:39:00.789Z,15.20
2018-10-11T22:41:29.523Z,15.77
2018-10-11T22:44:04.014Z,15.03
2018-10-11T22:46:32.870Z,15.43
2018-10-11T22:49:01.610Z,14.77
2018-10-11T22:51:30.308Z,15.13
2018-10-11T22:53:58.976Z,15.27
2018-10-11T22:56:27.680Z,15.40
2018-10-11T22:58:56.403Z,15.50
2018-10-11T23:01:25.087Z,14.60
2018-10-11T23:03:53.822Z,15.03
2018-10-11T23:06:22.502Z,13.77
2018-10-11T23:08:51.189Z,14.07
2018-10-11T23:11:19.907Z,15.13
2018-10-11T23:13:48.560Z,14.43
2018-10-11T23:16:17.266Z,14.50
2018-10-11T23:18:45.978Z,15.20
2018-10-11T23:21:14.652Z,16.70
2018-10-11T23:23:44.112Z,15.60
2018-10-11T23:26:12.832Z,23.07
2018-10-11T23:28:41.753Z,17.00
2018-10-11T23:31:11.087Z,16.73
2018-10-11T23:33:46.519Z,16.67
2018-10-11T23:36:15.208Z,16.70
2018-10-11T23:38:43.918Z,15.07
2018-10-11T23:41:12.615Z,15.60
2018-10-11T23:43:41.265Z,16.03
2018-10-11T23:46:09.963Z,17.47
2018-10-11T23:48:38.761Z,14.83
2018-10-11T23:51:07.465Z,14.93
2018-10-11T23:53:36.134Z,15.20
2018-10-11T23:56:04.919Z,16.63
2018-10-11T23:58:33.579Z,19.47
